Time;durP1;ratioP1;P1;durP2;ratioP2;P2;SDS_P1;SDS_P2;PMS_P1;PMS_P2;Temp;Humidity;BMP_temperature;BMP_pressure;BME280_temperature;BME280_humidity;BME280_pressure;Samples;Min_cycle;Max_cycle;Signal;HPM_P1;HPM_P2
2022/08/21 00:00:11;;;;;;;7.53;1.70;;;;;;;;;;5281760;28;20024;-70
2022/08/21 00:02:54;;;;;;;4.10;1.63;;;;;;;;;;5280737;28;20048;-70
2022/08/21 00:05:25;;;;;;;4.72;1.67;;;;;;;;;;5280520;28;20028;-70
2022/08/21 00:07:58;;;;;;;3.92;1.63;;;;;;;;;;5281859;28;20055;-70
2022/08/21 00:10:29;;;;;;;5.00;1.60;;;;;;;;;;5280432;28;20103;-70
2022/08/21 00:13:01;;;;;;;4.07;1.30;;;;;;;;;;5281719;28;20016;-69
2022/08/21 00:15:33;;;;;;;5.68;1.70;;;;;;;;;;5280788;28;20048;-69
2022/08/21 00:18:05;;;;;;;4.45;1.65;;;;;;;;;;5280636;28;20104;-69
2022/08/21 00:20:37;;;;;;;2.63;1.67;;;;;;;;;;5280736;28;20432;-70
2022/08/21 00:23:09;;;;;;;6.78;2.10;;;;;;;;;;5280434;28;20039;-70
2022/08/21 00:25:41;;;;;;;7.00;2.47;;;;;;;;;;5278914;28;20028;-70
2022/08/21 00:28:12;;;;;;;4.82;2.08;;;;;;;;;;5280640;28;20031;-70
2022/08/21 00:30:44;;;;;;;6.63;2.15;;;;;;;;;;5279722;28;20111;-69
2022/08/21 00:33:15;;;;;;;6.57;2.67;;;;;;;;;;5281927;28;20409;-69
2022/08/21 00:35:46;;;;;;;6.97;2.53;;;;;;;;;;5283945;28;20436;-69
2022/08/21 00:38:17;;;;;;;5.07;2.17;;;;;;;;;;5283773;28;20753;-70
2022/08/21 00:40:54;;;;;;;5.07;2.58;;;;;;;;;;5284009;28;20757;-70
2022/08/21 00:43:27;;;;;;;5.75;2.60;;;;;;;;;;5284086;28;20028;-70
2022/08/21 00:45:59;;;;;;;6.57;3.33;;;;;;;;;;5283794;28;20036;-70
2022/08/21 00:48:32;;;;;;;5.50;2.60;;;;;;;;;;5283868;28;20028;-69
2022/08/21 00:51:08;;;;;;;5.25;2.88;;;;;;;;;;5284200;28;20380;-69
2022/08/21 00:53:41;;;;;;;3.17;2.38;;;;;;;;;;5283179;28;20024;-69
2022/08/21 00:56:13;;;;;;;5.20;2.50;;;;;;;;;;5284357;28;20387;-69
2022/08/21 00:58:45;;;;;;;7.55;2.42;;;;;;;;;;5283525;28;20039;-69
2022/08/21 01:01:16;;;;;;;5.30;3.08;;;;;;;;;;5283181;28;20032;-69
2022/08/21 01:03:48;;;;;;;7.75;3.35;;;;;;;;;;5283249;28;20115;-69
2022/08/21 01:06:19;;;;;;;5.10;2.90;;;;;;;;;;5283364;28;20531;-69
2022/08/21 01:08:50;;;;;;;6.40;2.90;;;;;;;;;;5283308;28;20048;-69
2022/08/21 01:11:21;;;;;;;7.63;2.85;;;;;;;;;;5283904;28;20446;-69
2022/08/21 01:13:53;;;;;;;6.73;3.40;;;;;;;;;;5282535;28;20029;-70
2022/08/21 01:16:24;;;;;;;11.80;3.92;;;;;;;;;;5283766;28;20258;-69
2022/08/21 01:18:56;;;;;;;3.85;3.03;;;;;;;;;;5283615;28;20131;-69
2022/08/21 01:21:27;;;;;;;5.95;3.00;;;;;;;;;;5282563;28;20031;-69
2022/08/21 01:23:59;;;;;;;10.20;3.50;;;;;;;;;;5283436;28;20293;-68
2022/08/21 01:26:31;;;;;;;8.10;3.63;;;;;;;;;;5283210;28;20095;-68
2022/08/21 01:29:09;;;;;;;5.80;3.47;;;;;;;;;;5283021;28;20029;-68
2022/08/21 01:31:40;;;;;;;9.10;3.80;;;;;;;;;;5283082;28;20021;-69
2022/08/21 01:34:12;;;;;;;6.20;3.33;;;;;;;;;;5283433;28;20190;-68
2022/08/21 01:36:44;;;;;;;5.95;3.28;;;;;;;;;;5282133;28;20729;-69
2022/08/21 01:39:15;;;;;;;6.85;3.40;;;;;;;;;;5283559;28;20043;-69
2022/08/21 01:41:47;;;;;;;7.28;3.75;;;;;;;;;;5282291;28;20021;-69
2022/08/21 01:44:20;;;;;;;8.67;3.90;;;;;;;;;;5283002;28;20025;-68
2022/08/21 01:46:52;;;;;;;8.30;3.97;;;;;;;;;;5282496;28;20324;-69
2022/08/21 01:49:23;;;;;;;4.80;3.72;;;;;;;;;;5282307;28;20464;-68
2022/08/21 01:51:54;;;;;;;6.30;3.60;;;;;;;;;;5282937;28;20021;-69
2022/08/21 01:54:26;;;;;;;6.20;3.80;;;;;;;;;;5282386;28;20283;-69
2022/08/21 01:56:57;;;;;;;6.32;3.72;;;;;;;;;;5282275;28;20471;-68
2022/08/21 01:59:29;;;;;;;8.05;4.10;;;;;;;;;;5282167;28;20048;-69
2022/08/21 02:02:00;;;;;;;6.05;3.13;;;;;;;;;;5282890;28;20059;-68
2022/08/21 02:04:32;;;;;;;7.25;3.83;;;;;;;;;;5281677;28;20062;-69
2022/08/21 02:07:03;;;;;;;6.20;3.65;;;;;;;;;;5282886;28;20024;-68
2022/08/21 02:09:34;;;;;;;8.65;3.97;;;;;;;;;;5281727;28;20049;-69
2022/08/21 02:12:06;;;;;;;8.82;4.47;;;;;;;;;;5282781;28;20017;-69
2022/08/21 02:14:37;;;;;;;5.13;3.83;;;;;;;;;;5282574;28;20539;-69
2022/08/21 02:17:08;;;;;;;5.90;3.85;;;;;;;;;;5282188;28;20038;-69
2022/08/21 02:19:39;;;;;;;7.57;4.10;;;;;;;;;;5281998;28;20415;-69
2022/08/21 02:22:10;;;;;;;6.55;4.28;;;;;;;;;;5282562;28;20024;-69
2022/08/21 02:24:42;;;;;;;7.65;4.20;;;;;;;;;;5281212;28;20028;-69
2022/08/21 02:27:13;;;;;;;4.95;4.03;;;;;;;;;;5282628;28;20059;-69
2022/08/21 02:29:44;;;;;;;5.95;3.42;;;;;;;;;;5281958;28;20638;-69
2022/08/21 02:32:15;;;;;;;7.85;3.83;;;;;;;;;;5281686;28;20070;-69
2022/08/21 02:34:46;;;;;;;4.28;3.45;;;;;;;;;;5281552;28;20267;-69
2022/08/21 02:37:17;;;;;;;5.43;4.07;;;;;;;;;;5282440;28;20047;-69
2022/08/21 02:39:49;;;;;;;4.13;3.50;;;;;;;;;;5280867;28;20298;-69
2022/08/21 02:42:21;;;;;;;7.15;4.18;;;;;;;;;;5282214;28;20035;-69
2022/08/21 02:44:52;;;;;;;7.78;4.15;;;;;;;;;;5280720;28;20039;-69
2022/08/21 02:47:23;;;;;;;7.05;4.35;;;;;;;;;;5281777;28;20020;-69
2022/08/21 02:49:54;;;;;;;5.95;4.20;;;;;;;;;;5281680;28;20270;-69
2022/08/21 02:52:25;;;;;;;6.40;5.75;;;;;;;;;;5280763;28;20045;-70
2022/08/21 02:54:56;;;;;;;7.70;5.63;;;;;;;;;;5281259;28;20263;-69
2022/08/21 02:57:27;;;;;;;7.47;5.93;;;;;;;;;;5281368;28;20270;-69
2022/08/21 02:59:59;;;;;;;8.90;6.53;;;;;;;;;;5280874;28;20281;-69
2022/08/21 03:02:30;;;;;;;9.02;6.03;;;;;;;;;;5281064;28;20279;-69
2022/08/21 03:05:02;;;;;;;10.15;6.55;;;;;;;;;;5281714;28;20040;-69
2022/08/21 03:07:34;;;;;;;8.10;6.15;;;;;;;;;;5280189;28;20035;-69
2022/08/21 03:10:06;;;;;;;9.52;6.55;;;;;;;;;;5281460;28;20020;-69
2022/08/21 03:12:37;;;;;;;9.25;6.32;;;;;;;;;;5280887;28;20021;-69
2022/08/21 03:15:09;;;;;;;7.97;6.38;;;;;;;;;;5280773;28;20025;-69
2022/08/21 03:17:41;;;;;;;7.93;6.40;;;;;;;;;;5281004;28;20402;-69
2022/08/21 03:20:13;;;;;;;8.23;6.80;;;;;;;;;;5280866;28;20073;-69
2022/08/21 03:22:45;;;;;;;9.52;6.30;;;;;;;;;;5280893;28;21309;-69
2022/08/21 03:25:16;;;;;;;10.37;6.13;;;;;;;;;;5281435;28;20150;-68
2022/08/21 03:27:48;;;;;;;11.10;6.90;;;;;;;;;;5280175;28;20263;-69
2022/08/21 03:30:20;;;;;;;7.85;6.20;;;;;;;;;;5281068;28;20028;-69
2022/08/21 03:32:52;;;;;;;8.48;6.15;;;;;;;;;;5280687;28;20336;-68
2022/08/21 03:35:23;;;;;;;8.52;6.13;;;;;;;;;;5280045;28;20028;-69
2022/08/21 03:37:55;;;;;;;7.77;6.10;;;;;;;;;;5280936;28;20387;-68
2022/08/21 03:40:26;;;;;;;10.05;6.05;;;;;;;;;;5280547;28;20383;-69
2022/08/21 03:42:58;;;;;;;8.48;6.38;;;;;;;;;;5280348;28;20050;-69
2022/08/21 03:45:30;;;;;;;11.55;7.20;;;;;;;;;;5280324;28;20039;-69
2022/08/21 03:48:03;;;;;;;8.15;6.18;;;;;;;;;;5280675;28;20472;-69
2022/08/21 03:50:36;;;;;;;7.75;6.65;;;;;;;;;;5280340;28;20337;-69
2022/08/21 03:53:08;;;;;;;7.85;5.93;;;;;;;;;;5280848;28;20024;-69
2022/08/21 03:55:39;;;;;;;7.82;6.03;;;;;;;;;;5279590;28;20020;-69
2022/08/21 03:58:10;;;;;;;9.73;6.10;;;;;;;;;;5280743;28;20016;-69
2022/08/21 04:00:41;;;;;;;7.95;5.93;;;;;;;;;;5280484;28;20020;-68
2022/08/21 04:03:13;;;;;;;10.50;5.20;;;;;;;;;;5280119;28;20119;-69
2022/08/21 04:05:45;;;;;;;9.30;6.72;;;;;;;;;;5280237;28;20348;-69
2022/08/21 04:08:18;;;;;;;9.63;6.38;;;;;;;;;;5280754;28;20020;-70
2022/08/21 04:10:52;;;;;;;8.57;6.38;;;;;;;;;;5279396;28;20024;-70
2022/08/21 04:13:23;;;;;;;9.68;6.90;;;;;;;;;;5281029;28;20657;-70
2022/08/21 04:15:55;;;;;;;7.53;5.90;;;;;;;;;;5280681;28;20028;-70
2022/08/21 04:18:27;;;;;;;11.82;7.03;;;;;;;;;;5279459;28;20107;-70
2022/08/21 04:20:59;;;;;;;13.60;6.28;;;;;;;;;;5280776;28;20096;-71
2022/08/21 04:23:31;;;;;;;10.38;6.35;;;;;;;;;;5279175;28;20092;-70
2022/08/21 04:26:02;;;;;;;9.85;6.60;;;;;;;;;;5280750;28;20387;-70
2022/08/21 04:28:33;;;;;;;14.02;6.47;;;;;;;;;;5279918;28;20056;-70
2022/08/21 04:31:04;;;;;;;7.32;5.85;;;;;;;;;;5279686;28;20017;-68
2022/08/21 04:33:35;;;;;;;9.63;5.75;;;;;;;;;;5279663;28;20021;-69
2022/08/21 04:36:07;;;;;;;12.40;6.30;;;;;;;;;;5280678;28;20027;-70
2022/08/21 04:38:38;;;;;;;9.00;5.97;;;;;;;;;;5279241;28;20274;-70
2022/08/21 04:41:09;;;;;;;7.55;5.60;;;;;;;;;;5280745;28;20016;-70
2022/08/21 04:43:41;;;;;;;10.07;6.00;;;;;;;;;;5279839;28;20350;-68
2022/08/21 04:46:12;;;;;;;9.43;6.07;;;;;;;;;;5279743;28;20042;-70
2022/08/21 04:48:43;;;;;;;7.63;5.32;;;;;;;;;;5280010;28;20017;-69
2022/08/21 04:51:21;;;;;;;9.90;5.38;;;;;;;;;;5280427;28;20025;-69
2022/08/21 04:53:54;;;;;;;10.35;5.50;;;;;;;;;;5279839;28;20271;-69
2022/08/21 04:56:35;;;;;;;7.03;5.00;;;;;;;;;;5280140;28;20055;-70
2022/08/21 04:59:10;;;;;;;9.27;4.70;;;;;;;;;;5280103;28;20377;-69
2022/08/21 05:01:42;;;;;;;7.60;5.18;;;;;;;;;;5279635;28;20121;-70
2022/08/21 05:04:15;;;;;;;10.63;5.55;;;;;;;;;;5280133;28;20031;-69
2022/08/21 05:06:46;;;;;;;8.15;5.05;;;;;;;;;;5278940;28;20029;-69
2022/08/21 05:09:18;;;;;;;12.10;5.80;;;;;;;;;;5280249;28;20379;-70
2022/08/21 05:11:51;;;;;;;9.73;4.70;;;;;;;;;;5279570;28;20083;-69
2022/08/21 05:14:22;;;;;;;7.90;5.10;;;;;;;;;;5279531;28;20043;-69
2022/08/21 05:16:53;;;;;;;9.88;4.97;;;;;;;;;;5279577;28;20095;-69
2022/08/21 05:19:25;;;;;;;8.07;4.80;;;;;;;;;;5282127;28;20267;-69
2022/08/21 05:21:57;;;;;;;11.65;5.38;;;;;;;;;;5283463;28;20763;-70
2022/08/21 05:24:29;;;;;;;10.10;5.03;;;;;;;;;;5283423;28;20383;-70
2022/08/21 05:27:00;;;;;;;10.68;4.72;;;;;;;;;;5282886;28;20033;-70
2022/08/21 05:29:31;;;;;;;9.73;4.50;;;;;;;;;;5283158;28;20020;-69
2022/08/21 05:32:07;;;;;;;10.23;4.65;;;;;;;;;;5283402;28;20035;-70
2022/08/21 05:34:39;;;;;;;12.75;5.57;;;;;;;;;;5282395;28;20381;-69
2022/08/21 05:37:11;;;;;;;9.93;4.70;;;;;;;;;;5283579;28;20024;-69
2022/08/21 05:39:43;;;;;;;12.48;4.90;;;;;;;;;;5282940;28;20255;-69
2022/08/21 05:42:14;;;;;;;6.20;3.90;;;;;;;;;;5282640;28;20032;-69
2022/08/21 05:44:45;;;;;;;6.43;3.88;;;;;;;;;;5283189;28;20119;-69
2022/08/21 05:47:16;;;;;;;7.78;3.65;;;;;;;;;;5284104;28;20266;-69
2022/08/21 05:49:47;;;;;;;9.35;3.85;;;;;;;;;;5282551;28;20021;-69
2022/08/21 05:52:19;;;;;;;9.48;4.55;;;;;;;;;;5283501;28;20020;-69
2022/08/21 05:54:53;;;;;;;10.07;3.53;;;;;;;;;;5282293;28;20263;-69
2022/08/21 05:57:25;;;;;;;10.57;3.85;;;;;;;;;;5283508;28;20142;-69
2022/08/21 05:59:56;;;;;;;13.18;4.07;;;;;;;;;;5283784;28;20100;-68
2022/08/21 06:02:27;;;;;;;6.78;3.42;;;;;;;;;;5282232;28;20045;-69
2022/08/21 06:04:58;;;;;;;7.38;3.72;;;;;;;;;;5283769;28;20036;-71
2022/08/21 06:07:29;;;;;;;6.20;2.97;;;;;;;;;;5282840;28;20278;-70
2022/08/21 06:10:01;;;;;;;7.78;3.97;;;;;;;;;;5282692;28;20263;-69
2022/08/21 06:12:32;;;;;;;7.75;3.28;;;;;;;;;;5282918;28;20021;-69
2022/08/21 06:15:03;;;;;;;7.75;3.17;;;;;;;;;;5283533;28;20025;-69
2022/08/21 06:17:34;;;;;;;9.52;3.00;;;;;;;;;;5281957;28;20263;-69
2022/08/21 06:20:06;;;;;;;6.10;3.03;;;;;;;;;;5283157;28;20028;-70
2022/08/21 06:22:37;;;;;;;9.13;3.42;;;;;;;;;;5282489;28;20463;-70
2022/08/21 06:25:09;;;;;;;7.40;3.50;;;;;;;;;;5282563;28;20028;-70
2022/08/21 06:27:40;;;;;;;13.82;4.20;;;;;;;;;;5282666;28;20017;-69
2022/08/21 06:30:11;;;;;;;8.27;2.90;;;;;;;;;;5281215;28;20020;-70
2022/08/21 06:32:42;;;;;;;12.15;3.67;;;;;;;;;;5282457;28;20263;-69
2022/08/21 06:35:14;;;;;;;7.28;3.25;;;;;;;;;;5282938;28;20020;-70
2022/08/21 06:37:45;;;;;;;7.20;2.90;;;;;;;;;;5281836;28;20017;-69
2022/08/21 06:40:16;;;;;;;8.82;2.80;;;;;;;;;;5283242;28;20271;-69
2022/08/21 06:42:47;;;;;;;11.32;3.15;;;;;;;;;;5282484;28;20270;-70
2022/08/21 06:45:18;;;;;;;10.27;3.30;;;;;;;;;;5282338;28;20029;-69
2022/08/21 06:47:50;;;;;;;11.63;2.63;;;;;;;;;;5282457;28;20020;-70
2022/08/21 06:50:21;;;;;;;8.82;3.15;;;;;;;;;;5282886;28;20028;-70
2022/08/21 06:53:04;;;;;;;10.27;3.10;;;;;;;;;;5281497;28;20528;-69
2022/08/21 06:55:35;;;;;;;10.20;3.10;;;;;;;;;;5282405;28;20263;-70
2022/08/21 06:58:07;;;;;;;9.13;2.63;;;;;;;;;;5282093;28;20158;-71
2022/08/21 07:00:40;;;;;;;7.28;2.20;;;;;;;;;;5281792;28;20056;-69
2022/08/21 07:03:22;;;;;;;8.93;2.75;;;;;;;;;;5282103;28;20110;-68
2022/08/21 07:05:54;;;;;;;8.27;3.15;;;;;;;;;;5280997;28;20032;-69
2022/08/21 07:08:26;;;;;;;13.70;3.20;;;;;;;;;;5281720;28;20070;-69
2022/08/21 07:10:59;;;;;;;8.80;2.50;;;;;;;;;;5282334;28;20463;-69
2022/08/21 07:13:30;;;;;;;9.75;3.00;;;;;;;;;;5280601;28;20024;-70
2022/08/21 07:16:02;;;;;;;10.63;2.73;;;;;;;;;;5281981;28;20024;-69
2022/08/21 07:18:33;;;;;;;10.93;2.63;;;;;;;;;;5281316;28;20270;-69
2022/08/21 07:21:05;;;;;;;9.23;3.03;;;;;;;;;;5281243;28;20384;-70
2022/08/21 07:23:39;;;;;;;9.02;2.92;;;;;;;;;;5281331;28;20412;-69
2022/08/21 07:26:11;;;;;;;8.73;2.90;;;;;;;;;;5280958;28;20106;-69
2022/08/21 07:28:42;;;;;;;11.02;3.30;;;;;;;;;;5281212;28;20021;-70
2022/08/21 07:31:16;;;;;;;10.40;2.50;;;;;;;;;;5281940;28;20044;-69
2022/08/21 07:33:47;;;;;;;8.20;2.45;;;;;;;;;;5280208;28;20020;-69
2022/08/21 07:36:18;;;;;;;9.80;3.25;;;;;;;;;;5281110;28;20033;-70
2022/08/21 07:38:49;;;;;;;10.23;2.67;;;;;;;;;;5280374;28;20491;-70
2022/08/21 07:41:23;;;;;;;7.47;2.17;;;;;;;;;;5279952;28;20287;-71
2022/08/21 07:43:55;;;;;;;16.35;2.78;;;;;;;;;;5280450;28;20016;-69
2022/08/21 07:46:26;;;;;;;12.23;1.92;;;;;;;;;;5280390;28;20507;-70
2022/08/21 07:48:57;;;;;;;12.45;2.58;;;;;;;;;;5280403;28;20388;-70
2022/08/21 07:51:29;;;;;;;11.07;2.42;;;;;;;;;;5280533;28;20016;-70
2022/08/21 07:54:00;;;;;;;8.93;1.73;;;;;;;;;;5281930;28;20047;-70
2022/08/21 07:56:31;;;;;;;10.35;2.13;;;;;;;;;;5279799;28;20020;-70
2022/08/21 07:59:03;;;;;;;7.20;2.15;;;;;;;;;;5280908;28;20024;-70
2022/08/21 08:01:34;;;;;;;11.82;1.70;;;;;;;;;;5279724;28;20829;-70
2022/08/21 08:04:05;;;;;;;11.52;2.35;;;;;;;;;;5281069;28;20039;-71
2022/08/21 08:06:36;;;;;;;10.98;1.70;;;;;;;;;;5280601;28;20308;-70
2022/08/21 08:09:08;;;;;;;8.17;1.47;;;;;;;;;;5280293;28;20060;-70
2022/08/21 08:11:40;;;;;;;9.00;1.95;;;;;;;;;;5275693;28;20266;-70
2022/08/21 08:14:12;;;;;;;9.68;1.33;;;;;;;;;;5280310;28;20067;-70
2022/08/21 08:16:43;;;;;;;13.02;2.05;;;;;;;;;;5278975;28;20032;-69
2022/08/21 08:19:14;;;;;;;7.63;1.30;;;;;;;;;;5280265;28;20399;-70
2022/08/21 08:21:45;;;;;;;8.85;1.30;;;;;;;;;;5279835;28;20614;-69
2022/08/21 08:24:16;;;;;;;9.47;1.10;;;;;;;;;;5279902;28;20430;-69
2022/08/21 08:26:47;;;;;;;7.10;0.90;;;;;;;;;;5280043;28;20270;-69
2022/08/21 08:29:19;;;;;;;11.18;1.52;;;;;;;;;;5280505;28;20013;-70
2022/08/21 08:31:50;;;;;;;6.85;1.50;;;;;;;;;;5279545;28;20468;-69
2022/08/21 08:34:22;;;;;;;8.82;1.48;;;;;;;;;;5280491;28;20017;-69
2022/08/21 08:36:54;;;;;;;7.93;1.33;;;;;;;;;;5279672;28;20078;-70
2022/08/21 08:39:26;;;;;;;12.77;2.28;;;;;;;;;;5280540;28;20013;-70
2022/08/21 08:42:17;;;;;;;8.80;1.20;;;;;;;;;;5281049;28;20031;-69
2022/08/21 08:44:58;;;;;;;11.15;1.17;;;;;;;;;;5279150;28;20035;-70
2022/08/21 08:47:31;;;;;;;7.38;0.93;;;;;;;;;;5280501;28;20035;-71
2022/08/21 08:50:05;;;;;;;9.50;1.08;;;;;;;;;;5280597;28;20569;-70
2022/08/21 08:52:42;;;;;;;9.00;1.35;;;;;;;;;;5279420;28;20027;-70
2022/08/21 08:55:16;;;;;;;12.75;1.50;;;;;;;;;;5284946;28;20043;-72
2022/08/21 08:57:48;;;;;;;10.85;1.02;;;;;;;;;;5283393;28;20020;-71
2022/08/21 09:00:20;;;;;;;9.90;1.50;;;;;;;;;;5284138;28;20479;-71
2022/08/21 09:02:54;;;;;;;8.60;1.08;;;;;;;;;;5283161;28;20135;-71
2022/08/21 09:05:27;;;;;;;10.43;1.17;;;;;;;;;;5282702;28;20230;-69
2022/08/21 09:08:12;;;;;;;11.20;1.00;;;;;;;;;;5284195;28;20040;-70
2022/08/21 09:10:54;;;;;;;9.98;1.00;;;;;;;;;;5283804;28;20041;-70
2022/08/21 09:13:44;;;;;;;5.25;0.60;;;;;;;;;;5282797;28;20031;-70
2022/08/21 09:16:21;;;;;;;7.80;1.00;;;;;;;;;;5283911;28;20078;-70
2022/08/21 09:19:02;;;;;;;6.78;0.80;;;;;;;;;;5282586;28;20043;-71
2022/08/21 09:21:42;;;;;;;5.78;0.60;;;;;;;;;;5283234;28;20024;-70
2022/08/21 09:24:22;;;;;;;8.05;0.70;;;;;;;;;;5283836;28;20032;-71
2022/08/21 09:26:53;;;;;;;7.03;0.50;;;;;;;;;;5282515;28;20031;-69
2022/08/21 09:29:28;;;;;;;8.38;0.60;;;;;;;;;;5283245;28;20024;-71
2022/08/21 09:31:59;;;;;;;6.07;0.73;;;;;;;;;;5283683;28;20482;-70
2022/08/21 09:34:31;;;;;;;4.82;0.50;;;;;;;;;;5282026;28;20017;-70
2022/08/21 09:37:02;;;;;;;5.00;0.70;;;;;;;;;;5283304;28;20028;-71
2022/08/21 09:39:37;;;;;;;5.87;0.60;;;;;;;;;;5282581;28;20055;-71
2022/08/21 09:42:09;;;;;;;7.40;0.50;;;;;;;;;;5282259;28;20070;-71
2022/08/21 09:44:43;;;;;;;6.40;0.45;;;;;;;;;;5282439;28;20107;-70
2022/08/21 09:47:18;;;;;;;7.43;0.60;;;;;;;;;;5282471;28;20031;-71
2022/08/21 09:49:49;;;;;;;5.65;0.50;;;;;;;;;;5282558;28;20455;-70
2022/08/21 09:52:22;;;;;;;6.00;0.52;;;;;;;;;;5282476;28;20020;-70
2022/08/21 09:54:54;;;;;;;6.93;0.63;;;;;;;;;;5282241;28;20479;-71
2022/08/21 09:57:42;;;;;;;5.43;0.60;;;;;;;;;;5282589;28;20061;-70
2022/08/21 10:00:39;;;;;;;4.40;0.47;;;;;;;;;;5283452;28;20024;-70
2022/08/21 10:03:12;;;;;;;4.60;0.70;;;;;;;;;;5276964;28;20106;-71
2022/08/21 10:05:55;;;;;;;5.30;0.75;;;;;;;;;;5282263;28;20431;-70
2022/08/21 10:08:27;;;;;;;6.75;0.90;;;;;;;;;;5281638;28;20016;-71
2022/08/21 10:11:05;;;;;;;4.72;0.60;;;;;;;;;;5282781;28;20028;-71
2022/08/21 10:13:39;;;;;;;6.47;0.50;;;;;;;;;;5282090;28;20146;-69
2022/08/21 10:16:22;;;;;;;7.63;0.60;;;;;;;;;;5282114;28;20027;-70
2022/08/21 10:18:53;;;;;;;4.68;0.52;;;;;;;;;;5282248;28;20037;-71
2022/08/21 10:21:36;;;;;;;4.80;0.45;;;;;;;;;;5282611;28;20407;-71
2022/08/21 10:24:18;;;;;;;4.22;0.60;;;;;;;;;;5282227;28;20025;-69
2022/08/21 10:26:57;;;;;;;4.68;0.50;;;;;;;;;;5282357;28;20040;-70
2022/08/21 10:29:38;;;;;;;3.47;0.60;;;;;;;;;;5281633;28;20021;-71
2022/08/21 10:32:21;;;;;;;4.80;0.73;;;;;;;;;;5282713;28;20126;-70
2022/08/21 10:34:52;;;;;;;3.97;0.50;;;;;;;;;;5282213;28;20056;-70
2022/08/21 10:37:31;;;;;;;4.28;0.63;;;;;;;;;;5281726;28;20432;-70
2022/08/21 10:40:03;;;;;;;;;;;;;;;;;;5282861;28;20021;-70
2022/08/21 10:42:58;;;;;;;5.20;0.50;;;;;;;;;;5281923;28;19911;-69
2022/08/21 10:45:46;;;;;;;8.80;1.15;;;;;;;;;;5281418;28;20033;-69
2022/08/21 10:48:20;;;;;;;5.75;0.68;;;;;;;;;;5282239;28;20157;-70
2022/08/21 10:50:55;;;;;;;3.83;0.50;;;;;;;;;;5280621;28;20024;-69
2022/08/21 10:53:36;;;;;;;8.63;0.60;;;;;;;;;;5281461;28;20015;-69
2022/08/21 10:56:13;;;;;;;5.32;0.60;;;;;;;;;;5282030;28;20016;-68
2022/08/21 10:58:56;;;;;;;5.20;0.65;;;;;;;;;;5280459;28;20440;-69
2022/08/21 11:01:48;;;;;;;7.50;0.88;;;;;;;;;;5281167;28;20043;-69
2022/08/21 11:04:23;;;;;;;4.00;0.70;;;;;;;;;;5280180;28;20028;-70
2022/08/21 11:07:00;;;;;;;4.82;0.70;;;;;;;;;;5280979;28;20020;-69
2022/08/21 11:09:31;;;;;;;4.57;0.70;;;;;;;;;;5280828;28;20020;-69
2022/08/21 11:12:09;;;;;;;5.85;0.60;;;;;;;;;;5280880;28;20023;-69
2022/08/21 11:15:02;;;;;;;6.43;0.93;;;;;;;;;;5280910;28;20462;-69
2022/08/21 11:17:36;;;;;;;4.68;0.80;;;;;;;;;;5280321;28;20092;-69
2022/08/21 11:20:11;;;;;;;6.05;0.60;;;;;;;;;;5280535;28;20031;-69
2022/08/21 11:22:49;;;;;;;9.45;1.55;;;;;;;;;;5280831;28;20371;-69
2022/08/21 11:25:20;;;;;;;6.03;1.00;;;;;;;;;;5280567;28;20406;-70
2022/08/21 11:28:03;;;;;;;4.60;0.57;;;;;;;;;;5280623;28;20028;-71
2022/08/21 11:30:42;;;;;;;5.55;0.82;;;;;;;;;;5280538;28;20423;-70
2022/08/21 11:33:14;;;;;;;5.55;0.60;;;;;;;;;;5280395;28;20237;-70
2022/08/21 11:35:51;;;;;;;6.13;0.87;;;;;;;;;;5280403;28;20100;-70
2022/08/21 11:38:42;;;;;;;5.75;0.50;;;;;;;;;;5280918;28;20024;-73
2022/08/21 11:41:23;;;;;;;6.50;0.80;;;;;;;;;;5280236;28;20017;-70
2022/08/21 11:44:02;;;;;;;4.10;0.52;;;;;;;;;;5280979;28;20025;-70
2022/08/21 11:47:02;;;;;;;3.05;0.60;;;;;;;;;;5279836;28;20384;-70
2022/08/21 11:49:50;;;;;;;4.22;0.50;;;;;;;;;;5191001;28;20456;-69
2022/08/21 11:52:35;;;;;;;4.10;0.50;;;;;;;;;;5280767;28;20028;-69
2022/08/21 11:55:11;;;;;;;4.85;0.50;;;;;;;;;;5279999;28;20050;-69
2022/08/21 11:57:53;;;;;;;6.43;1.00;;;;;;;;;;5280236;28;20065;-68
2022/08/21 12:00:43;;;;;;;9.02;0.63;;;;;;;;;;5279986;28;20063;-69
2022/08/21 12:03:25;;;;;;;6.13;0.60;;;;;;;;;;5280815;28;20441;-69
2022/08/21 12:06:13;;;;;;;5.47;0.60;;;;;;;;;;5280131;28;20043;-68
2022/08/21 12:08:45;;;;;;;4.45;0.60;;;;;;;;;;5279206;28;20032;-69
2022/08/21 12:11:16;;;;;;;4.28;0.60;;;;;;;;;;5280645;28;20020;-69
2022/08/21 12:14:12;;;;;;;5.28;0.60;;;;;;;;;;5279681;28;20025;-69
2022/08/21 12:16:45;;;;;;;6.03;0.52;;;;;;;;;;5279167;28;20024;-69
2022/08/21 12:19:19;;;;;;;7.03;1.17;;;;;;;;;;5280267;28;20021;-69
2022/08/21 12:21:51;;;;;;;6.35;0.60;;;;;;;;;;5279157;28;20036;-69
2022/08/21 12:24:26;;;;;;;4.88;0.65;;;;;;;;;;5280205;28;20031;-69
2022/08/21 12:26:58;;;;;;;7.28;0.75;;;;;;;;;;5280254;28;20023;-69
2022/08/21 12:29:29;;;;;;;4.70;0.80;;;;;;;;;;5281882;28;20029;-73
2022/08/21 12:32:20;;;;;;;5.90;0.70;;;;;;;;;;5284882;28;20432;-73
2022/08/21 12:35:14;;;;;;;4.10;1.00;;;;;;;;;;5283999;28;20286;-71
2022/08/21 12:37:51;;;;;;;5.50;0.55;;;;;;;;;;5283280;28;20017;-71
2022/08/21 12:40:30;;;;;;;4.50;0.90;;;;;;;;;;5284846;28;20342;-70
2022/08/21 12:43:02;;;;;;;4.95;0.65;;;;;;;;;;5283978;28;20295;-70
2022/08/21 12:45:53;;;;;;;5.28;0.60;;;;;;;;;;5284109;28;20116;-69
2022/08/21 12:48:38;;;;;;;5.28;0.80;;;;;;;;;;5283521;28;20035;-70
2022/08/21 12:51:14;;;;;;;7.32;1.05;;;;;;;;;;5283810;28;20547;-70
2022/08/21 12:53:47;;;;;;;7.75;0.90;;;;;;;;;;5283831;28;20016;-70
2022/08/21 12:56:31;;;;;;;9.98;1.00;;;;;;;;;;5284902;28;20020;-69
2022/08/21 12:59:04;;;;;;;8.50;1.00;;;;;;;;;;5283810;28;20027;-69
2022/08/21 13:01:45;;;;;;;5.88;0.82;;;;;;;;;;5283152;28;20048;-69
2022/08/21 13:04:20;;;;;;;5.40;0.68;;;;;;;;;;5283094;28;20502;-70
2022/08/21 13:06:54;;;;;;;8.63;0.50;;;;;;;;;;5283423;28;20038;-69
2022/08/21 13:09:29;;;;;;;10.00;0.90;;;;;;;;;;5283133;28;20095;-68
2022/08/21 13:12:01;;;;;;;8.02;0.55;;;;;;;;;;5272152;28;20092;-68
2022/08/21 13:14:40;;;;;;;6.15;0.55;;;;;;;;;;5271877;28;20012;-67
2022/08/21 13:17:12;;;;;;;4.20;0.60;;;;;;;;;;5273751;28;20025;-68
2022/08/21 13:19:52;;;;;;;4.53;0.50;;;;;;;;;;5270824;28;20056;-68
2022/08/21 13:22:24;;;;;;;3.03;0.50;;;;;;;;;;5271719;28;20013;-69
2022/08/21 13:24:55;;;;;;;7.68;0.80;;;;;;;;;;5262985;28;20380;-69
2022/08/21 13:27:27;;;;;;;3.67;0.50;;;;;;;;;;5262061;28;20104;-69
2022/08/21 13:30:12;;;;;;;5.90;0.70;;;;;;;;;;5262873;28;20041;-68
2022/08/21 13:32:47;;;;;;;6.20;0.80;;;;;;;;;;5261398;28;20095;-69
2022/08/21 13:35:25;;;;;;;5.50;0.88;;;;;;;;;;5262490;28;20017;-69
2022/08/21 13:37:56;;;;;;;7.20;0.90;;;;;;;;;;5262654;28;20115;-68
2022/08/21 13:40:29;;;;;;;7.80;0.80;;;;;;;;;;5260787;28;20108;-69
2022/08/21 13:43:01;;;;;;;4.93;0.50;;;;;;;;;;5262271;28;20061;-69
2022/08/21 13:45:32;;;;;;;7.72;0.60;;;;;;;;;;5261670;28;20426;-70
2022/08/21 13:48:05;;;;;;;5.88;0.57;;;;;;;;;;5261591;28;20021;-69
2022/08/21 13:50:37;;;;;;;5.00;0.40;;;;;;;;;;5261887;28;20092;-68
2022/08/21 13:53:29;;;;;;;6.88;0.60;;;;;;;;;;5261749;28;20021;-69
2022/08/21 13:56:00;;;;;;;7.43;0.70;;;;;;;;;;5261700;28;20043;-69
2022/08/21 13:58:42;;;;;;;9.02;0.80;;;;;;;;;;5265470;28;20091;-71
2022/08/21 14:01:25;;;;;;;6.32;0.90;;;;;;;;;;5261800;28;20036;-69
2022/08/21 14:04:00;;;;;;;7.68;0.82;;;;;;;;;;5267483;28;20517;-69
2022/08/21 14:06:35;;;;;;;5.72;0.70;;;;;;;;;;5269000;28;20039;-69
2022/08/21 14:09:09;;;;;;;4.50;0.60;;;;;;;;;;5272674;28;20017;-69
2022/08/21 14:11:40;;;;;;;5.45;1.25;;;;;;;;;;5275182;28;20028;-69
2022/08/21 14:14:31;;;;;;;5.50;0.60;;;;;;;;;;5263568;28;20023;-69
2022/08/21 14:17:06;;;;;;;9.63;0.65;;;;;;;;;;5276082;28;20550;-69
2022/08/21 14:19:42;;;;;;;6.20;0.82;;;;;;;;;;5277264;28;20029;-69
2022/08/21 14:22:28;;;;;;;6.85;0.73;;;;;;;;;;5261205;28;20021;-69
2022/08/21 14:25:07;;;;;;;7.55;0.90;;;;;;;;;;5260994;28;20051;-69
2022/08/21 14:27:44;;;;;;;5.72;1.00;;;;;;;;;;5273772;28;20103;-69
2022/08/21 14:30:20;;;;;;;4.72;0.82;;;;;;;;;;5275796;28;20021;-69
2022/08/21 14:32:52;;;;;;;6.53;0.73;;;;;;;;;;5280391;28;20033;-69
2022/08/21 14:35:23;;;;;;;6.88;0.90;;;;;;;;;;5268883;28;20039;-69
2022/08/21 14:37:55;;;;;;;4.82;0.60;;;;;;;;;;5261364;28;20052;-69
2022/08/21 14:40:27;;;;;;;6.25;0.77;;;;;;;;;;5275209;28;20029;-69
2022/08/21 14:42:58;;;;;;;6.05;0.70;;;;;;;;;;5274991;28;20013;-68
2022/08/21 14:45:30;;;;;;;5.73;0.70;;;;;;;;;;5260949;28;20040;-68
2022/08/21 14:48:01;;;;;;;8.27;0.88;;;;;;;;;;5268832;28;20048;-68
2022/08/21 14:50:32;;;;;;;6.93;0.90;;;;;;;;;;5265216;28;20103;-69
2022/08/21 14:53:04;;;;;;;6.77;1.03;;;;;;;;;;5281739;28;20020;-68
2022/08/21 14:56:04;;;;;;;5.97;0.68;;;;;;;;;;5279930;28;20472;-69
2022/08/21 14:58:27;;;;;;;7.05;0.70;;;;;;;;;;5259638;28;20112;-68
2022/08/21 15:00:58;;;;;;;5.33;0.70;;;;;;;;;;5262671;28;20115;-67
2022/08/21 15:03:30;;;;;;;8.65;0.65;;;;;;;;;;5262255;28;20284;-68
2022/08/21 15:06:02;;;;;;;6.82;0.80;;;;;;;;;;5279706;28;20032;-68
2022/08/21 15:08:33;;;;;;;4.78;0.60;;;;;;;;;;5281526;28;20066;-69
2022/08/21 15:11:05;;;;;;;3.60;0.60;;;;;;;;;;5281286;28;20020;-69
2022/08/21 15:13:36;;;;;;;6.13;0.68;;;;;;;;;;5281734;28;20020;-69
2022/08/21 15:16:08;;;;;;;7.72;0.80;;;;;;;;;;5282441;28;20024;-69
2022/08/21 15:18:41;;;;;;;4.78;0.60;;;;;;;;;;5280820;28;20025;-69
2022/08/21 15:21:13;;;;;;;8.93;0.70;;;;;;;;;;5282136;28;20422;-70